sensor_id;sensor_type;location;lat;lon;timestamp;pressure;altitude;pressure_sealevel;temperature;humidity
7802;BME280;3945;48.952;9.506;2023-08-20T00:00:01;98254.38;;;22.15;94.40
7802;BME280;3945;48.952;9.506;2023-08-20T00:02:29;98252.78;;;22.14;94.39
7802;BME280;3945;48.952;9.506;2023-08-20T00:04:57;98252.28;;;22.12;94.77
7802;BME280;3945;48.952;9.506;2023-08-20T00:07:25;98253.50;;;22.06;94.64
7802;BME280;3945;48.952;9.506;2023-08-20T00:09:52;98246.00;;;22.03;94.97
7802;BME280;3945;48.952;9.506;2023-08-20T00:12:19;98247.72;;;21.99;95.34
7802;BME280;3945;48.952;9.506;2023-08-20T00:14:53;98241.28;;;21.95;95.53
7802;BME280;3945;48.952;9.506;2023-08-20T00:17:20;98248.63;;;21.95;95.53
7802;BME280;3945;48.952;9.506;2023-08-20T00:19:47;98239.69;;;21.94;95.77
7802;BME280;3945;48.952;9.506;2023-08-20T00:22:14;98248.00;;;21.98;95.90
7802;BME280;3945;48.952;9.506;2023-08-20T00:24:40;98251.53;;;21.98;95.41
7802;BME280;3945;48.952;9.506;2023-08-20T00:27:08;98260.16;;;22.00;95.42
7802;BME280;3945;48.952;9.506;2023-08-20T00:29:35;98267.50;;;22.00;95.68
7802;BME280;3945;48.952;9.506;2023-08-20T00:32:01;98273.22;;;21.98;95.67
7802;BME280;3945;48.952;9.506;2023-08-20T00:34:27;98266.28;;;21.92;96.30
7802;BME280;3945;48.952;9.506;2023-08-20T00:36:54;98275.34;;;21.88;96.39
7802;BME280;3945;48.952;9.506;2023-08-20T00:39:20;98274.84;;;21.86;96.41
7802;BME280;3945;48.952;9.506;2023-08-20T00:41:46;98279.28;;;21.81;96.76
7802;BME280;3945;48.952;9.506;2023-08-20T00:44:14;98275.06;;;21.75;97.94
7802;BME280;3945;48.952;9.506;2023-08-20T00:46:40;98269.75;;;21.70;98.11
7802;BME280;3945;48.952;9.506;2023-08-20T00:49:07;98274.38;;;21.70;98.02
7802;BME280;3945;48.952;9.506;2023-08-20T00:51:33;98285.72;;;21.72;98.42
7802;BME280;3945;48.952;9.506;2023-08-20T00:54:00;98279.19;;;21.73;98.32
7802;BME280;3945;48.952;9.506;2023-08-20T00:56:28;98285.41;;;21.73;98.01
7802;BME280;3945;48.952;9.506;2023-08-20T00:58:55;98282.69;;;21.73;98.35
7802;BME280;3945;48.952;9.506;2023-08-20T01:01:23;98289.22;;;21.72;98.16
7802;BME280;3945;48.952;9.506;2023-08-20T01:03:49;98284.72;;;21.68;98.83
7802;BME280;3945;48.952;9.506;2023-08-20T01:06:19;98272.06;;;21.63;99.07
7802;BME280;3945;48.952;9.506;2023-08-20T01:08:47;98274.50;;;21.65;98.90
7802;BME280;3945;48.952;9.506;2023-08-20T01:11:16;98278.97;;;21.69;98.42
7802;BME280;3945;48.952;9.506;2023-08-20T01:13:43;98274.38;;;21.70;98.52
7802;BME280;3945;48.952;9.506;2023-08-20T01:16:11;98277.88;;;21.70;98.81
7802;BME280;3945;48.952;9.506;2023-08-20T01:18:38;98283.81;;;21.72;98.79
7802;BME280;3945;48.952;9.506;2023-08-20T01:21:06;98285.13;;;21.75;98.43
7802;BME280;3945;48.952;9.506;2023-08-20T01:23:44;98283.69;;;21.77;98.44
7802;BME280;3945;48.952;9.506;2023-08-20T01:26:25;98287.88;;;21.83;98.29
7802;BME280;3945;48.952;9.506;2023-08-20T01:28:59;98283.09;;;21.80;98.21
7802;BME280;3945;48.952;9.506;2023-08-20T01:31:26;98284.50;;;21.78;98.43
7802;BME280;3945;48.952;9.506;2023-08-20T01:33:53;98282.69;;;21.73;98.41
7802;BME280;3945;48.952;9.506;2023-08-20T01:36:19;98281.69;;;21.69;98.50
7802;BME280;3945;48.952;9.506;2023-08-20T01:38:46;98286.94;;;21.66;98.55
7802;BME280;3945;48.952;9.506;2023-08-20T01:41:12;98281.31;;;21.62;98.58
7802;BME280;3945;48.952;9.506;2023-08-20T01:43:38;98282.72;;;21.60;98.10
7802;BME280;3945;48.952;9.506;2023-08-20T01:46:06;98282.53;;;21.56;97.97
7802;BME280;3945;48.952;9.506;2023-08-20T01:48:34;98280.09;;;21.55;98.26
7802;BME280;3945;48.952;9.506;2023-08-20T01:51:00;98285.06;;;21.53;98.05
7802;BME280;3945;48.952;9.506;2023-08-20T01:53:27;98282.63;;;21.51;98.36
7802;BME280;3945;48.952;9.506;2023-08-20T01:55:53;98276.53;;;21.46;98.29
7802;BME280;3945;48.952;9.506;2023-08-20T01:58:20;98285.25;;;21.42;98.51
7802;BME280;3945;48.952;9.506;2023-08-20T02:00:46;98283.63;;;21.41;98.36
7802;BME280;3945;48.952;9.506;2023-08-20T02:03:14;98286.16;;;21.38;98.50
7802;BME280;3945;48.952;9.506;2023-08-20T02:05:40;98281.84;;;21.37;98.63
7802;BME280;3945;48.952;9.506;2023-08-20T02:08:06;98282.44;;;21.34;98.72
7802;BME280;3945;48.952;9.506;2023-08-20T02:10:33;98279.03;;;21.28;99.25
7802;BME280;3945;48.952;9.506;2023-08-20T02:12:59;98289.88;;;21.28;99.63
7802;BME280;3945;48.952;9.506;2023-08-20T02:15:25;98279.34;;;21.27;99.48
7802;BME280;3945;48.952;9.506;2023-08-20T02:17:52;98284.75;;;21.27;99.77
7802;BME280;3945;48.952;9.506;2023-08-20T02:20:20;98291.78;;;21.28;99.74
7802;BME280;3945;48.952;9.506;2023-08-20T02:22:46;98298.78;;;21.29;99.94
7802;BME280;3945;48.952;9.506;2023-08-20T02:25:12;98287.44;;;21.27;99.87
7802;BME280;3945;48.952;9.506;2023-08-20T02:27:38;98292.69;;;21.23;99.95
7802;BME280;3945;48.952;9.506;2023-08-20T02:30:05;98294.59;;;21.23;99.92
7802;BME280;3945;48.952;9.506;2023-08-20T02:32:32;98295.38;;;21.23;100.00
7802;BME280;3945;48.952;9.506;2023-08-20T02:34:58;98292.47;;;21.20;100.00
7802;BME280;3945;48.952;9.506;2023-08-20T02:37:26;98299.78;;;21.19;99.97
7802;BME280;3945;48.952;9.506;2023-08-20T02:39:52;98303.13;;;21.16;100.00
7802;BME280;3945;48.952;9.506;2023-08-20T02:42:19;98307.19;;;21.14;100.00
7802;BME280;3945;48.952;9.506;2023-08-20T02:44:45;98297.25;;;21.09;100.00
7802;BME280;3945;48.952;9.506;2023-08-20T02:47:11;98299.97;;;21.09;100.00
7802;BME280;3945;48.952;9.506;2023-08-20T02:49:38;98301.06;;;21.08;100.00
7802;BME280;3945;48.952;9.506;2023-08-20T02:52:04;98296.75;;;21.07;100.00
7802;BME280;3945;48.952;9.506;2023-08-20T02:54:32;98289.22;;;21.04;100.00
7802;BME280;3945;48.952;9.506;2023-08-20T02:57:02;98287.13;;;21.01;100.00
7802;BME280;3945;48.952;9.506;2023-08-20T02:59:29;98282.00;;;20.99;100.00
7802;BME280;3945;48.952;9.506;2023-08-20T03:01:55;98273.09;;;20.99;100.00
7802;BME280;3945;48.952;9.506;2023-08-20T03:04:22;98266.88;;;20.98;100.00
7802;BME280;3945;48.952;9.506;2023-08-20T03:06:48;98262.78;;;21.01;100.00
7802;BME280;3945;48.952;9.506;2023-08-20T03:09:15;98267.56;;;21.04;100.00
7802;BME280;3945;48.952;9.506;2023-08-20T03:11:46;98270.50;;;21.08;100.00
7802;BME280;3945;48.952;9.506;2023-08-20T03:14:12;98262.06;;;21.09;100.00
7802;BME280;3945;48.952;9.506;2023-08-20T03:16:39;98255.06;;;21.08;100.00
7802;BME280;3945;48.952;9.506;2023-08-20T03:19:05;98259.66;;;21.08;100.00
7802;BME280;3945;48.952;9.506;2023-08-20T03:21:32;98259.97;;;21.06;100.00
7802;BME280;3945;48.952;9.506;2023-08-20T03:23:58;98262.47;;;21.02;100.00
7802;BME280;3945;48.952;9.506;2023-08-20T03:26:27;98257.94;;;20.98;100.00
7802;BME280;3945;48.952;9.506;2023-08-20T03:28:55;98250.44;;;20.95;100.00
7802;BME280;3945;48.952;9.506;2023-08-20T03:31:21;98249.13;;;20.92;100.00
7802;BME280;3945;48.952;9.506;2023-08-20T03:33:48;98254.53;;;20.92;100.00
7802;BME280;3945;48.952;9.506;2023-08-20T03:36:17;98252.41;;;20.89;100.00
7802;BME280;3945;48.952;9.506;2023-08-20T03:38:46;98258.97;;;20.88;100.00
7802;BME280;3945;48.952;9.506;2023-08-20T03:41:13;98264.66;;;20.87;100.00
7802;BME280;3945;48.952;9.506;2023-08-20T03:43:39;98263.06;;;20.86;100.00
7802;BME280;3945;48.952;9.506;2023-08-20T03:46:07;98262.53;;;20.84;100.00
7802;BME280;3945;48.952;9.506;2023-08-20T03:48:34;98279.28;;;20.86;100.00
7802;BME280;3945;48.952;9.506;2023-08-20T03:51:00;98277.09;;;20.88;100.00
7802;BME280;3945;48.952;9.506;2023-08-20T03:53:27;98290.41;;;20.84;100.00
7802;BME280;3945;48.952;9.506;2023-08-20T03:55:53;98294.31;;;20.78;100.00
7802;BME280;3945;48.952;9.506;2023-08-20T03:58:20;98296.09;;;20.69;100.00
7802;BME280;3945;48.952;9.506;2023-08-20T04:00:46;98288.44;;;20.57;100.00
7802;BME280;3945;48.952;9.506;2023-08-20T04:03:14;98300.94;;;20.53;100.00
7802;BME280;3945;48.952;9.506;2023-08-20T04:05:44;98301.03;;;20.48;100.00
7802;BME280;3945;48.952;9.506;2023-08-20T04:08:11;98295.00;;;20.38;100.00
7802;BME280;3945;48.952;9.506;2023-08-20T04:10:42;98292.34;;;20.33;100.00
7802;BME280;3945;48.952;9.506;2023-08-20T04:13:08;98290.47;;;20.33;100.00
7802;BME280;3945;48.952;9.506;2023-08-20T04:15:34;98291.78;;;20.36;100.00
7802;BME280;3945;48.952;9.506;2023-08-20T04:18:01;98281.69;;;20.41;100.00
7802;BME280;3945;48.952;9.506;2023-08-20T04:20:28;98293.22;;;20.47;100.00
7802;BME280;3945;48.952;9.506;2023-08-20T04:22:55;98289.94;;;20.50;100.00
7802;BME280;3945;48.952;9.506;2023-08-20T04:25:21;98295.63;;;20.48;100.00
7802;BME280;3945;48.952;9.506;2023-08-20T04:27:47;98287.81;;;20.47;100.00
7802;BME280;3945;48.952;9.506;2023-08-20T04:33:16;98303.97;;;20.52;100.00
7802;BME280;3945;48.952;9.506;2023-08-20T04:35:44;98305.06;;;20.51;100.00
7802;BME280;3945;48.952;9.506;2023-08-20T04:38:10;98298.84;;;20.50;100.00
7802;BME280;3945;48.952;9.506;2023-08-20T04:40:37;98299.94;;;20.49;100.00
7802;BME280;3945;48.952;9.506;2023-08-20T04:43:03;98301.03;;;20.48;100.00
7802;BME280;3945;48.952;9.506;2023-08-20T04:45:29;98302.13;;;20.47;100.00
7802;BME280;3945;48.952;9.506;2023-08-20T04:47:56;98301.31;;;20.47;100.00
7802;BME280;3945;48.952;9.506;2023-08-20T04:50:22;98302.13;;;20.47;100.00
7802;BME280;3945;48.952;9.506;2023-08-20T04:52:50;98295.91;;;20.47;100.00
7802;BME280;3945;48.952;9.506;2023-08-20T04:55:16;98286.72;;;20.48;100.00
7802;BME280;3945;48.952;9.506;2023-08-20T04:57:42;98286.41;;;20.49;100.00
7802;BME280;3945;48.952;9.506;2023-08-20T05:00:09;98292.34;;;20.51;100.00
7802;BME280;3945;48.952;9.506;2023-08-20T05:02:36;98297.13;;;20.54;100.00
7802;BME280;3945;48.952;9.506;2023-08-20T05:05:02;98294.66;;;20.58;100.00
7802;BME280;3945;48.952;9.506;2023-08-20T05:07:29;98301.69;;;20.59;100.00
7802;BME280;3945;48.952;9.506;2023-08-20T05:09:56;98297.56;;;20.61;100.00
7802;BME280;3945;48.952;9.506;2023-08-20T05:12:23;98303.78;;;20.62;100.00
7802;BME280;3945;48.952;9.506;2023-08-20T05:14:49;98303.50;;;20.63;100.00
7802;BME280;3945;48.952;9.506;2023-08-20T05:17:15;98308.91;;;20.63;100.00
7802;BME280;3945;48.952;9.506;2023-08-20T05:19:42;98307.50;;;20.66;100.00
7802;BME280;3945;48.952;9.506;2023-08-20T05:22:08;98312.31;;;20.69;100.00
7802;BME280;3945;48.952;9.506;2023-08-20T05:24:36;98318.53;;;20.70;100.00
7802;BME280;3945;48.952;9.506;2023-08-20T05:27:07;98322.84;;;20.71;100.00
7802;BME280;3945;48.952;9.506;2023-08-20T05:29:34;98333.94;;;20.69;100.00
7802;BME280;3945;48.952;9.506;2023-08-20T05:32:00;98329.34;;;20.70;100.00
7802;BME280;3945;48.952;9.506;2023-08-20T05:34:27;98331.25;;;20.69;100.00
7802;BME280;3945;48.952;9.506;2023-08-20T05:36:53;98325.84;;;20.69;100.00
7802;BME280;3945;48.952;9.506;2023-08-20T05:39:19;98329.84;;;20.72;100.00
7802;BME280;3945;48.952;9.506;2023-08-20T05:41:46;98328.16;;;20.76;100.00
7802;BME280;3945;48.952;9.506;2023-08-20T05:44:13;98332.97;;;20.79;100.00
7802;BME280;3945;48.952;9.506;2023-08-20T05:46:40;98331.59;;;20.81;100.00
7802;BME280;3945;48.952;9.506;2023-08-20T05:49:06;98330.69;;;20.86;100.00
7802;BME280;3945;48.952;9.506;2023-08-20T05:51:32;98341.13;;;20.92;100.00
7802;BME280;3945;48.952;9.506;2023-08-20T05:53:59;98347.94;;;21.03;100.00
7802;BME280;3945;48.952;9.506;2023-08-20T05:56:25;98326.41;;;21.12;100.00
7802;BME280;3945;48.952;9.506;2023-08-20T05:58:51;98325.25;;;21.18;100.00
7802;BME280;3945;48.952;9.506;2023-08-20T06:01:19;98316.66;;;21.30;100.00
7802;BME280;3945;48.952;9.506;2023-08-20T06:03:45;98311.13;;;21.49;100.00
7802;BME280;3945;48.952;9.506;2023-08-20T06:06:12;98316.72;;;21.66;100.00
7802;BME280;3945;48.952;9.506;2023-08-20T06:08:38;98318.69;;;21.88;100.00
7802;BME280;3945;48.952;9.506;2023-08-20T06:11:04;98314.97;;;22.11;100.00
7802;BME280;3945;48.952;9.506;2023-08-20T06:13:31;98320.28;;;22.38;100.00
7802;BME280;3945;48.952;9.506;2023-08-20T06:15:57;98332.41;;;22.63;99.46
7802;BME280;3945;48.952;9.506;2023-08-20T06:18:25;98337.38;;;22.83;98.28
7802;BME280;3945;48.952;9.506;2023-08-20T06:20:51;98335.75;;;23.05;96.96
7802;BME280;3945;48.952;9.506;2023-08-20T06:23:17;98343.03;;;23.26;95.02
7802;BME280;3945;48.952;9.506;2023-08-20T06:25:44;98341.97;;;23.45;93.85
7802;BME280;3945;48.952;9.506;2023-08-20T06:28:10;98347.66;;;23.65;92.85
7802;BME280;3945;48.952;9.506;2023-08-20T06:30:36;98355.56;;;23.84;92.06
7802;BME280;3945;48.952;9.506;2023-08-20T06:33:03;98357.50;;;24.01;92.02
7802;BME280;3945;48.952;9.506;2023-08-20T06:35:31;98362.84;;;24.23;91.54
7802;BME280;3945;48.952;9.506;2023-08-20T06:37:57;98357.88;;;24.77;89.92
7802;BME280;3945;48.952;9.506;2023-08-20T06:40:23;98366.84;;;25.41;88.10
7802;BME280;3945;48.952;9.506;2023-08-20T06:42:50;98365.69;;;26.10;85.24
7802;BME280;3945;48.952;9.506;2023-08-20T06:45:16;98378.69;;;26.75;80.64
7802;BME280;3945;48.952;9.506;2023-08-20T06:47:42;98374.09;;;27.20;78.60
7802;BME280;3945;48.952;9.506;2023-08-20T06:50:09;98376.44;;;27.67;77.46
7802;BME280;3945;48.952;9.506;2023-08-20T06:52:37;98374.16;;;28.18;75.01
7802;BME280;3945;48.952;9.506;2023-08-20T06:55:03;98377.16;;;28.53;73.31
7802;BME280;3945;48.952;9.506;2023-08-20T06:57:30;98377.66;;;28.98;72.95
7802;BME280;3945;48.952;9.506;2023-08-20T06:59:56;98374.28;;;29.48;70.35
7802;BME280;3945;48.952;9.506;2023-08-20T07:02:22;98376.25;;;29.95;68.14
7802;BME280;3945;48.952;9.506;2023-08-20T07:04:49;98372.00;;;30.33;66.75
7802;BME280;3945;48.952;9.506;2023-08-20T07:07:15;98370.84;;;30.72;66.14
7802;BME280;3945;48.952;9.506;2023-08-20T07:09:43;98370.84;;;31.11;65.26
7802;BME280;3945;48.952;9.506;2023-08-20T07:12:09;98374.56;;;31.22;63.44
7802;BME280;3945;48.952;9.506;2023-08-20T07:14:36;98376.09;;;31.00;62.76
7802;BME280;3945;48.952;9.506;2023-08-20T07:17:02;98380.84;;;30.61;63.60
7802;BME280;3945;48.952;9.506;2023-08-20T07:19:29;98388.22;;;30.57;63.61
7802;BME280;3945;48.952;9.506;2023-08-20T07:21:55;98381.50;;;30.74;63.34
7802;BME280;3945;48.952;9.506;2023-08-20T07:24:21;98382.78;;;30.80;64.15
7802;BME280;3945;48.952;9.506;2023-08-20T07:26:51;98388.06;;;31.08;63.72
7802;BME280;3945;48.952;9.506;2023-08-20T07:29:20;98390.91;;;31.57;62.14
7802;BME280;3945;48.952;9.506;2023-08-20T07:31:48;98393.88;;;31.94;61.40
7802;BME280;3945;48.952;9.506;2023-08-20T07:34:15;98388.13;;;32.29;59.79
7802;BME280;3945;48.952;9.506;2023-08-20T07:36:41;98396.38;;;32.55;58.39
7802;BME280;3945;48.952;9.506;2023-08-20T07:39:08;98395.53;;;32.81;58.11
7802;BME280;3945;48.952;9.506;2023-08-20T07:41:34;98394.75;;;33.17;56.72
7802;BME280;3945;48.952;9.506;2023-08-20T07:44:02;98399.81;;;33.49;56.22
7802;BME280;3945;48.952;9.506;2023-08-20T07:46:28;98396.22;;;33.85;55.65
7802;BME280;3945;48.952;9.506;2023-08-20T07:48:55;98393.19;;;34.08;54.62
7802;BME280;3945;48.952;9.506;2023-08-20T07:51:21;98404.81;;;34.31;54.17
7802;BME280;3945;48.952;9.506;2023-08-20T07:53:48;98404.59;;;34.68;52.26
7802;BME280;3945;48.952;9.506;2023-08-20T07:56:14;98395.63;;;34.96;52.26
7802;BME280;3945;48.952;9.506;2023-08-20T07:58:40;98405.19;;;35.13;52.55
7802;BME280;3945;48.952;9.506;2023-08-20T08:01:08;98400.50;;;35.38;51.47
7802;BME280;3945;48.952;9.506;2023-08-20T08:03:34;98403.69;;;35.44;50.86
7802;BME280;3945;48.952;9.506;2023-08-20T08:06:01;98406.03;;;35.35;50.63
7802;BME280;3945;48.952;9.506;2023-08-20T08:08:27;98398.13;;;35.26;51.46
7802;BME280;3945;48.952;9.506;2023-08-20T08:10:53;98397.34;;;35.29;50.57
7802;BME280;3945;48.952;9.506;2023-08-20T08:13:20;98405.63;;;35.33;51.65
7802;BME280;3945;48.952;9.506;2023-08-20T08:15:47;98413.97;;;35.47;50.73
7802;BME280;3945;48.952;9.506;2023-08-20T08:18:15;98419.91;;;35.42;51.91
7802;BME280;3945;48.952;9.506;2023-08-20T08:20:42;98420.31;;;35.51;50.74
7802;BME280;3945;48.952;9.506;2023-08-20T08:23:08;98420.69;;;35.42;53.02
7802;BME280;3945;48.952;9.506;2023-08-20T08:25:35;98410.41;;;35.53;51.50
7802;BME280;3945;48.952;9.506;2023-08-20T08:28:02;98407.63;;;35.36;52.90
7802;BME280;3945;48.952;9.506;2023-08-20T08:30:28;98417.16;;;35.74;51.84
7802;BME280;3945;48.952;9.506;2023-08-20T08:32:55;98416.38;;;36.05;51.18
7802;BME280;3945;48.952;9.506;2023-08-20T08:35:23;98420.31;;;36.25;49.64
7802;BME280;3945;48.952;9.506;2023-08-20T08:37:49;98418.31;;;36.33;49.69
7802;BME280;3945;48.952;9.506;2023-08-20T08:40:16;98412.75;;;36.47;49.90
7802;BME280;3945;48.952;9.506;2023-08-20T08:42:43;98407.94;;;36.62;48.11
7802;BME280;3945;48.952;9.506;2023-08-20T08:45:13;98405.97;;;36.66;48.97
7802;BME280;3945;48.952;9.506;2023-08-20T08:47:40;98412.25;;;36.81;49.75
7802;BME280;3945;48.952;9.506;2023-08-20T08:50:07;98416.53;;;37.03;48.95
7802;BME280;3945;48.952;9.506;2023-08-20T08:52:35;98420.84;;;37.14;48.10
7802;BME280;3945;48.952;9.506;2023-08-20T08:55:03;98426.13;;;36.81;48.43
7802;BME280;3945;48.952;9.506;2023-08-20T08:57:30;98420.72;;;36.38;48.91
7802;BME280;3945;48.952;9.506;2023-08-20T08:59:56;98420.72;;;36.24;48.74
7802;BME280;3945;48.952;9.506;2023-08-20T09:02:23;98418.63;;;36.63;49.67
7802;BME280;3945;48.952;9.506;2023-08-20T09:04:49;98416.88;;;37.12;48.17
7802;BME280;3945;48.952;9.506;2023-08-20T09:07:16;98417.41;;;37.59;46.62
7802;BME280;3945;48.952;9.506;2023-08-20T09:09:44;98422.31;;;37.88;46.08
7802;BME280;3945;48.952;9.506;2023-08-20T09:12:13;98414.25;;;38.01;45.42
7802;BME280;3945;48.952;9.506;2023-08-20T09:14:43;98415.06;;;37.50;47.69
7802;BME280;3945;48.952;9.506;2023-08-20T09:17:10;98406.19;;;37.69;46.68
7802;BME280;3945;48.952;9.506;2023-08-20T09:19:37;98408.56;;;37.74;46.47
7802;BME280;3945;48.952;9.506;2023-08-20T09:22:04;98411.81;;;38.10;46.40
7802;BME280;3945;48.952;9.506;2023-08-20T09:24:32;98410.13;;;38.57;45.37
7802;BME280;3945;48.952;9.506;2023-08-20T09:27:01;98416.03;;;38.97;44.64
7802;BME280;3945;48.952;9.506;2023-08-20T09:29:31;98413.69;;;39.22;42.64
7802;BME280;3945;48.952;9.506;2023-08-20T09:32:01;98411.28;;;39.24;43.28
7802;BME280;3945;48.952;9.506;2023-08-20T09:34:38;98416.59;;;39.42;43.78
7802;BME280;3945;48.952;9.506;2023-08-20T09:37:07;98406.78;;;39.61;42.48
7802;BME280;3945;48.952;9.506;2023-08-20T09:39:34;98414.94;;;39.71;42.63
7802;BME280;3945;48.952;9.506;2023-08-20T09:42:01;98420.84;;;40.00;42.35
7802;BME280;3945;48.952;9.506;2023-08-20T09:44:28;98414.34;;;40.30;41.26
7802;BME280;3945;48.952;9.506;2023-08-20T09:46:58;98420.53;;;40.41;41.29
7802;BME280;3945;48.952;9.506;2023-08-20T09:49:24;98417.47;;;40.55;40.44
7802;BME280;3945;48.952;9.506;2023-08-20T09:51:55;98418.50;;;40.42;41.38
7802;BME280;3945;48.952;9.506;2023-08-20T09:54:25;98430.03;;;40.64;40.30
7802;BME280;3945;48.952;9.506;2023-08-20T09:56:54;98417.16;;;40.50;41.83
7802;BME280;3945;48.952;9.506;2023-08-20T09:59:26;98417.75;;;40.41;40.58
7802;BME280;3945;48.952;9.506;2023-08-20T10:01:52;98415.88;;;40.54;40.65
7802;BME280;3945;48.952;9.506;2023-08-20T10:04:19;98413.44;;;40.37;41.42
7802;BME280;3945;48.952;9.506;2023-08-20T10:06:47;98412.06;;;40.25;42.33
7802;BME280;3945;48.952;9.506;2023-08-20T10:09:14;98403.44;;;40.16;41.09
7802;BME280;3945;48.952;9.506;2023-08-20T10:11:40;98400.44;;;39.84;42.11
7802;BME280;3945;48.952;9.506;2023-08-20T10:14:07;98400.09;;;39.55;42.00
7802;BME280;3945;48.952;9.506;2023-08-20T10:16:34;98402.13;;;39.51;43.45
7802;BME280;3945;48.952;9.506;2023-08-20T10:19:02;98408.81;;;39.80;42.26
7802;BME280;3945;48.952;9.506;2023-08-20T10:21:28;98402.41;;;40.06;42.48
7802;BME280;3945;48.952;9.506;2023-08-20T10:23:54;98407.69;;;40.24;41.08
7802;BME280;3945;48.952;9.506;2023-08-20T10:26:21;98401.47;;;40.36;41.62
7802;BME280;3945;48.952;9.506;2023-08-20T10:28:49;98396.50;;;40.47;41.95
7802;BME280;3945;48.952;9.506;2023-08-20T10:31:16;98401.25;;;40.70;41.91
7802;BME280;3945;48.952;9.506;2023-08-20T10:33:50;98408.38;;;40.91;41.06
7802;BME280;3945;48.952;9.506;2023-08-20T10:36:21;98407.44;;;40.98;41.59
7802;BME280;3945;48.952;9.506;2023-08-20T10:38:51;98405.28;;;40.85;39.80
7802;BME280;3945;48.952;9.506;2023-08-20T10:41:24;98402.78;;;40.71;40.17
7802;BME280;3945;48.952;9.506;2023-08-20T10:43:50;98403.50;;;40.55;40.97
7802;BME280;3945;48.952;9.506;2023-08-20T10:46:18;98396.19;;;40.42;40.93
7802;BME280;3945;48.952;9.506;2023-08-20T10:48:46;98398.59;;;40.20;41.65
7802;BME280;3945;48.952;9.506;2023-08-20T10:51:15;98393.34;;;40.02;41.60
7802;BME280;3945;48.952;9.506;2023-08-20T10:53:42;98390.59;;;39.75;44.25
7802;BME280;3945;48.952;9.506;2023-08-20T10:56:10;98388.59;;;39.99;43.18
7802;BME280;3945;48.952;9.506;2023-08-20T10:58:38;98396.53;;;40.24;42.47
7802;BME280;3945;48.952;9.506;2023-08-20T11:01:14;98407.19;;;40.29;41.03
7802;BME280;3945;48.952;9.506;2023-08-20T11:03:41;98398.56;;;40.43;42.47
7802;BME280;3945;48.952;9.506;2023-08-20T11:06:07;98400.47;;;40.70;41.09
7802;BME280;3945;48.952;9.506;2023-08-20T11:08:35;98401.59;;;40.72;40.18
7802;BME280;3945;48.952;9.506;2023-08-20T11:11:02;98393.75;;;40.44;41.29
7802;BME280;3945;48.952;9.506;2023-08-20T11:13:28;98395.63;;;40.50;41.43
7802;BME280;3945;48.952;9.506;2023-08-20T11:15:55;98393.19;;;40.52;42.51
7802;BME280;3945;48.952;9.506;2023-08-20T11:18:22;98390.69;;;40.38;42.46
7802;BME280;3945;48.952;9.506;2023-08-20T11:20:50;98388.97;;;40.44;42.87
7802;BME280;3945;48.952;9.506;2023-08-20T11:23:16;98390.59;;;40.42;41.08
7802;BME280;3945;48.952;9.506;2023-08-20T11:25:44;98387.09;;;40.38;40.58
7802;BME280;3945;48.952;9.506;2023-08-20T11:28:10;98387.66;;;40.29;41.72
7802;BME280;3945;48.952;9.506;2023-08-20T11:30:37;98383.16;;;39.92;42.29
7802;BME280;3945;48.952;9.506;2023-08-20T11:33:04;98385.19;;;39.65;42.19
7802;BME280;3945;48.952;9.506;2023-08-20T11:35:30;98379.50;;;39.72;42.62
7802;BME280;3945;48.952;9.506;2023-08-20T11:37:57;98380.81;;;39.91;42.58
7802;BME280;3945;48.952;9.506;2023-08-20T11:40:24;98383.81;;;40.00;40.60
7802;BME280;3945;48.952;9.506;2023-08-20T11:42:52;98372.97;;;40.05;41.77
7802;BME280;3945;48.952;9.506;2023-08-20T11:45:18;98378.16;;;40.27;40.90
7802;BME280;3945;48.952;9.506;2023-08-20T11:47:45;98375.38;;;40.46;41.01
7802;BME280;3945;48.952;9.506;2023-08-20T11:50:11;98375.88;;;40.61;40.63
7802;BME280;3945;48.952;9.506;2023-08-20T11:52:38;98367.66;;;40.74;40.74
7802;BME280;3945;48.952;9.506;2023-08-20T11:55:05;98371.00;;;40.85;40.20
7802;BME280;3945;48.952;9.506;2023-08-20T11:57:32;98367.97;;;40.95;39.44
7802;BME280;3945;48.952;9.506;2023-08-20T12:00:01;98374.34;;;40.96;40.26
7802;BME280;3945;48.952;9.506;2023-08-20T12:02:30;98366.50;;;41.07;41.95
7802;BME280;3945;48.952;9.506;2023-08-20T12:04:56;98369.28;;;41.07;40.65
7802;BME280;3945;48.952;9.506;2023-08-20T12:07:24;98364.91;;;40.90;39.23
7802;BME280;3945;48.952;9.506;2023-08-20T12:09:51;98368.00;;;40.76;40.12
7802;BME280;3945;48.952;9.506;2023-08-20T12:12:17;98370.53;;;40.70;41.35
7802;BME280;3945;48.952;9.506;2023-08-20T12:14:45;98359.38;;;40.70;40.05
7802;BME280;3945;48.952;9.506;2023-08-20T12:17:16;98364.34;;;40.79;40.07
7802;BME280;3945;48.952;9.506;2023-08-20T12:19:42;98362.91;;;40.90;37.92
7802;BME280;3945;48.952;9.506;2023-08-20T12:22:09;98361.28;;;40.73;39.59
7802;BME280;3945;48.952;9.506;2023-08-20T12:24:35;98359.28;;;40.54;37.37
7802;BME280;3945;48.952;9.506;2023-08-20T12:27:01;98356.19;;;40.48;37.13
7802;BME280;3945;48.952;9.506;2023-08-20T12:29:28;98353.47;;;40.25;38.54
7802;BME280;3945;48.952;9.506;2023-08-20T12:31:55;98354.28;;;40.22;40.10
7802;BME280;3945;48.952;9.506;2023-08-20T12:34:22;98351.47;;;39.79;38.55
7802;BME280;3945;48.952;9.506;2023-08-20T12:36:50;98345.19;;;39.52;38.23
7802;BME280;3945;48.952;9.506;2023-08-20T12:39:17;98341.44;;;39.38;38.95
7802;BME280;3945;48.952;9.506;2023-08-20T12:41:43;98342.41;;;39.52;37.49
7802;BME280;3945;48.952;9.506;2023-08-20T12:44:10;98346.31;;;39.77;37.67
7802;BME280;3945;48.952;9.506;2023-08-20T12:46:36;98334.09;;;39.95;36.99
7802;BME280;3945;48.952;9.506;2023-08-20T12:49:03;98339.97;;;40.00;37.02
7802;BME280;3945;48.952;9.506;2023-08-20T12:51:30;98332.66;;;40.06;36.94
7802;BME280;3945;48.952;9.506;2023-08-20T12:53:57;98331.41;;;40.11;38.56
7802;BME280;3945;48.952;9.506;2023-08-20T12:56:23;98333.03;;;40.08;39.56
7802;BME280;3945;48.952;9.506;2023-08-20T12:58:50;98331.53;;;40.04;37.60
7802;BME280;3945;48.952;9.506;2023-08-20T13:01:16;98330.03;;;39.99;37.20
7802;BME280;3945;48.952;9.506;2023-08-20T13:03:44;98328.09;;;39.96;36.23
7802;BME280;3945;48.952;9.506;2023-08-20T13:06:11;98323.50;;;39.86;36.41
7802;BME280;3945;48.952;9.506;2023-08-20T13:08:39;98330.66;;;39.87;36.48
7802;BME280;3945;48.952;9.506;2023-08-20T13:11:07;98321.44;;;39.90;37.09
7802;BME280;3945;48.952;9.506;2023-08-20T13:13:35;98320.66;;;39.90;37.58
7802;BME280;3945;48.952;9.506;2023-08-20T13:16:02;98318.28;;;39.88;36.58
7802;BME280;3945;48.952;9.506;2023-08-20T13:18:28;98318.44;;;39.77;38.06
7802;BME280;3945;48.952;9.506;2023-08-20T13:20:55;98318.47;;;39.54;38.81